San Diego, California
Current Conditions -  °F | °C
As of 3:51 AM on Thursday 23 Oct 2014 (Local Time) from KSAN Reporting Station
Haze Haze  
Wind Chill: 17°   Ceiling: Unl
Heat Index: 17°   Visibility: 6mi
Dew Point: 15°   Wind: 0mph
Humidity: 87%   Direction: NA
Pressure: 29.94"   Gusts: NA
Location:  32.72°N, 117.16°W
Report Text: KSAN 231051Z 00000KT 6SM BR CLR 17/15 A2994 RMK AO2 SLP137 T01720150
Loading
Personal Weather Stations






























Interactive Weather Map
Tropical Storm Tracking
New forecast layout! Learn more

10-Day Weather Forecast

Advertisements
Track Severe Weather on mobile